Mercury — 3FFC7 — position and weather

sailwx.info

Track history (hours):
 
Tides and Currents Weather Stations Pressure Air Temp Water Temp Dewpoint Dewpoint Depression Visibility Wind Speed Wind Dir Waves Ship Positions

Mercury

Operator: Royal Caribbean Cruises Ltd

Last reported at 2019-Aug-20 08:41 UTC. Time now 2019-Aug-20 09:48 UTC.
Position N 37°49' E 010°27'.

Length 199 m; draft 8.8 m.

Type: Cargo ship. MMSI: 371862000.

Date/timePositionNaut miles runAvg speedWind from/ knotsBaromVisibWave heightAir tempDewpointWater temp
2019-Aug-20 08:41N 37°49' E 010°27'817.4
2019-Aug-20 08:14N 37°45' E 010°35'517.5
2019-Aug-20 07:58N 37°43' E 010°40'817.6
2019-Aug-20 07:29N 37°38' E 010°49'1017.8
2019-Aug-20 06:56N 37°33' E 010°60'5918.2
2019-Aug-20 03:41N 37°03' E 012°03'318.5
2019-Aug-20 03:30N 37°01' E 012°07'918.2
2019-Aug-20 03:00N 36°58' E 012°18'918.3
2019-Aug-20 02:30N 36°54' E 012°28'917.8
2019-Aug-20 02:00N 36°51' E 012°38'  
Track history (hours):
 
Tides and Currents Weather Stations Pressure Air Temp Water Temp Dewpoint Dewpoint Depression Visibility Wind Speed Wind Dir Waves Ship Positions

Mercury

Operator: Royal Caribbean Cruises Ltd

Last reported at 2019-Aug-20 08:41 UTC. Time now 2019-Aug-20 09:48 UTC.
Position N 37°49' E 010°27'.

Length 199 m; draft 8.8 m.

Type: Cargo ship. MMSI: 371862000.

Date/timePositionNaut miles runAvg speedWind from/ knotsBaromVisibWave heightAir tempDewpointWater temp
2019-Aug-20 08:41N 37°49' E 010°27'817.4
2019-Aug-20 08:14N 37°45' E 010°35'517.5
2019-Aug-20 07:58N 37°43' E 010°40'817.6
2019-Aug-20 07:29N 37°38' E 010°49'1017.8
2019-Aug-20 06:56N 37°33' E 010°60'5918.2
2019-Aug-20 03:41N 37°03' E 012°03'318.5
2019-Aug-20 03:30N 37°01' E 012°07'918.2
2019-Aug-20 03:00N 36°58' E 012°18'918.3
2019-Aug-20 02:30N 36°54' E 012°28'917.8
2019-Aug-20 02:00N 36°51' E 012°38'  

Dump ship's entire track history